Map

Track Data

SID SEASON NUMBER BASIN SUBBASIN NAME ISO_TIME NATURE LAT LON WMO_WIND WMO_PRES WMO_AGENCY TRACK_TYPE DIST2LAND LANDFALL IFLAG USA_AGENCY USA_ATCF_ID USA_LAT USA_LON USA_RECORD USA_STATUS USA_WIND USA_PRES USA_SSHS USA_R34_NE USA_R34_SE USA_R34_SW USA_R34_NW USA_R50_NE USA_R50_SE USA_R50_SW USA_R50_NW USA_R64_NE USA_R64_SE USA_R64_SW USA_R64_NW USA_POCI USA_ROCI USA_RMW USA_EYE TOKYO_LAT TOKYO_LON TOKYO_GRADE TOKYO_WIND TOKYO_PRES TOKYO_R50_DIR TOKYO_R50_LONG TOKYO_R50_SHORT TOKYO_R30_DIR TOKYO_R30_LONG TOKYO_R30_SHORT TOKYO_LAND CMA_LAT CMA_LON CMA_CAT CMA_WIND CMA_PRES HKO_LAT HKO_LON HKO_CAT HKO_WIND HKO_PRES NEWDELHI_LAT NEWDELHI_LON NEWDELHI_GRADE NEWDELHI_WIND NEWDELHI_PRES NEWDELHI_CI NEWDELHI_DP NEWDELHI_POCI REUNION_LAT REUNION_LON REUNION_TYPE REUNION_WIND REUNION_PRES REUNION_TNUM REUNION_CI REUNION_RMW REUNION_R34_NE REUNION_R34_SE REUNION_R34_SW REUNION_R34_NW REUNION_R50_NE REUNION_R50_SE REUNION_R50_SW REUNION_R50_NW REUNION_R64_NE REUNION_R64_SE REUNION_R64_SW REUNION_R64_NW BOM_LAT BOM_LON BOM_TYPE BOM_WIND BOM_PRES BOM_TNUM BOM_CI BOM_RMW BOM_R34_NE BOM_R34_SE BOM_R34_SW BOM_R34_NW BOM_R50_NE BOM_R50_SE BOM_R50_SW BOM_R50_NW BOM_R64_NE BOM_R64_SE BOM_R64_SW BOM_R64_NW BOM_ROCI BOM_POCI BOM_EYE BOM_POS_METHOD BOM_PRES_METHOD NADI_LAT NADI_LON NADI_CAT NADI_WIND NADI_PRES WELLINGTON_LAT WELLINGTON_LON WELLINGTON_WIND WELLINGTON_PRES DS824_LAT DS824_LON DS824_STAGE DS824_WIND DS824_PRES TD9636_LAT TD9636_LON TD9636_STAGE TD9636_WIND TD9636_PRES TD9635_LAT TD9635_LON TD9635_WIND TD9635_PRES TD9635_ROCI NEUMANN_LAT NEUMANN_LON NEUMANN_CLASS NEUMANN_WIND NEUMANN_PRES MLC_LAT MLC_LON MLC_CLASS MLC_WIND MLC_PRES USA_GUST BOM_GUST BOM_GUST_PER REUNION_GUST REUNION_GUST_PER USA_SEAHGT USA_SEARAD_NE USA_SEARAD_SE USA_SEARAD_SW USA_SEARAD_NW STORM_SPEED STORM_DIR
1906247N10327 1906 29 NA NA NOT_NAMED 1906-09-03 12:00:00 TS 10.2000 -33.0000 35 hurdat_atl main 1650 1635 O_____________ hurdat_atl AL051906 10.2000 -33.0000 TS 35 0 7 280
1906247N10327 1906 29 NA NA NOT_NAMED 1906-09-03 15:00:00 TS 10.2626 -33.3749 main 1640 1626 P_____________ AL051906 10.2626 -33.3749 TS 35 0 7 278
1906247N10327 1906 29 NA NA NOT_NAMED 1906-09-03 18:00:00 TS 10.3000 -33.7000 35 hurdat_atl main 1626 1617 O_____________ hurdat_atl AL051906 10.3000 -33.7000 TS 35 0 6 274
1906247N10327 1906 29 NA NA NOT_NAMED 1906-09-03 21:00:00 TS 10.2999 -33.9500 main 1612 1604 P_____________ AL051906 10.2999 -33.9500 TS 35 0 5 270
1906247N10327 1906 29 NA NA NOT_NAMED 1906-09-04 00:00:00 TS 10.3000 -34.2000 35 hurdat_atl main 1604 1591 O_____________ hurdat_atl AL051906 10.3000 -34.2000 TS 35 0 6 274
1906247N10327 1906 29 NA NA NOT_NAMED 1906-09-04 03:00:00 TS 10.3425 -34.5275 main 1591 1586 P_____________ AL051906 10.3425 -34.5275 TS 35 0 7 278
1906247N10327 1906 29 NA NA NOT_NAMED 1906-09-04 06:00:00 TS 10.4000 -34.9000 35 hurdat_atl main 1586 1571 O_____________ hurdat_atl AL051906 10.4000 -34.9000 TS 35 0 8 278
1906247N10327 1906 29 NA NA NOT_NAMED 1906-09-04 09:00:00 TS 10.4499 -35.2850 main 1571 1568 P_____________ AL051906 10.4499 -35.2850 TS 35 0 8 277
1906247N10327 1906 29 NA NA NOT_NAMED 1906-09-04 12:00:00 TS 10.5000 -35.7000 35 hurdat_atl main 1568 1556 O_____________ hurdat_atl AL051906 10.5000 -35.7000 TS 35 0 8 276
1906247N10327 1906 29 NA NA NOT_NAMED 1906-09-04 15:00:00 TS 10.5349 -36.1351 main 1556 1550 P_____________ AL051906 10.5349 -36.1351 TS 35 0 9 276
1906247N10327 1906 29 NA NA NOT_NAMED 1906-09-04 18:00:00 TS 10.6000 -36.6000 35 hurdat_atl main 1553 1548 O_____________ hurdat_atl AL051906 10.6000 -36.6000 TS 35 0 10 282
1906247N10327 1906 29 NA NA NOT_NAMED 1906-09-04 21:00:00 TS 10.7350 -37.1000 main 1552 1552 P_____________ AL051906 10.7350 -37.1000 TS 35 0 10 287
1906247N10327 1906 29 NA NA NOT_NAMED 1906-09-05 00:00:00 TS 10.9000 -37.6000 35 hurdat_atl main 1565 1562 O_____________ hurdat_atl AL051906 10.9000 -37.6000 TS 35 0 10 288
1906247N10327 1906 29 NA NA NOT_NAMED 1906-09-05 03:00:00 TS 11.0424 -38.0501 main 1568 1568 P_____________ AL051906 11.0424 -38.0501 TS 35 0 9 289
1906247N10327 1906 29 NA NA NOT_NAMED 1906-09-05 06:00:00 TS 11.2000 -38.5000 35 hurdat_atl main 1586 1571 O_____________ hurdat_atl AL051906 11.2000 -38.5000 TS 35 0 10 291
1906247N10327 1906 29 NA NA NOT_NAMED 1906-09-05 09:00:00 TS 11.3925 -38.9925 main 1571 1535 P_____________ AL051906 11.3925 -38.9925 TS 35 0 11 292
1906247N10327 1906 29 NA NA NOT_NAMED 1906-09-05 12:00:00 TS 11.6000 -39.5000 35 hurdat_atl main 1535 1501 O_____________ hurdat_atl AL051906 11.6000 -39.5000 TS 35 0 11 292
1906247N10327 1906 29 NA NA NOT_NAMED 1906-09-05 15:00:00 TS 11.7999 -40.0076 main 1501 1468 P_____________ AL051906 11.7999 -40.0076 TS 35 0 11 292
1906247N10327 1906 29 NA NA NOT_NAMED 1906-09-05 18:00:00 TS 12.0000 -40.5000 35 hurdat_atl main 1468 1446 O_____________ hurdat_atl AL051906 12.0000 -40.5000 TS 35 0 10 293
1906247N10327 1906 29 NA NA NOT_NAMED 1906-09-05 21:00:00 TS 12.1999 -40.9576 main 1438 1417 P_____________ AL051906 12.1999 -40.9576 TS 35 0 10 294
1906247N10327 1906 29 NA NA NOT_NAMED 1906-09-06 00:00:00 TS 12.4000 -41.4000 35 hurdat_atl main 1417 1398 O_____________ hurdat_atl AL051906 12.4000 -41.4000 TS 35 0 10 295
1906247N10327 1906 29 NA NA NOT_NAMED 1906-09-06 03:00:00 TS 12.5999 -41.8501 main 1390 1373 P_____________ AL051906 12.5999 -41.8501 TS 35 0 10 294
1906247N10327 1906 29 NA NA NOT_NAMED 1906-09-06 06:00:00 TS 12.8000 -42.3000 35 hurdat_atl main 1373 1357 O_____________ hurdat_atl AL051906 12.8000 -42.3000 TS 35 0 10 294
1906247N10327 1906 29 NA NA NOT_NAMED 1906-09-06 09:00:00 TS 12.9924 -42.7426 main 1357 1335 P_____________ AL051906 12.9924 -42.7426 TS 35 0 10 295
1906247N10327 1906 29 NA NA NOT_NAMED 1906-09-06 12:00:00 TS 13.2000 -43.2000 35 hurdat_atl main 1336 1317 O_____________ hurdat_atl AL051906 13.2000 -43.2000 TS 35 0 11 296
1906247N10327 1906 29 NA NA NOT_NAMED 1906-09-06 15:00:00 TS 13.4501 -43.7149 main 1326 1307 P_____________ AL051906 13.4501 -43.7149 TS 35 0 11 297
1906247N10327 1906 29 NA NA NOT_NAMED 1906-09-06 18:00:00 TS 13.7000 -44.2000 35 hurdat_atl main 1310 1299 O_____________ hurdat_atl AL051906 13.7000 -44.2000 TS 35 0 9 298
1906247N10327 1906 29 NA NA NOT_NAMED 1906-09-06 21:00:00 TS 13.8998 -44.5727 main 1302 1299 P_____________ AL051906 13.8998 -44.5727 TS 37 0 8 300
1906247N10327 1906 29 NA NA NOT_NAMED 1906-09-07 00:00:00 TS 14.1000 -44.9000 40 hurdat_atl main 1303 1297 O_____________ hurdat_atl AL051906 14.1000 -44.9000 TS 40 0 8 304
1906247N10327 1906 29 NA NA NOT_NAMED 1906-09-07 03:00:00 TS 14.3425 -45.2575 main 1295 1295 P_____________ AL051906 14.3425 -45.2575 TS 40 0 8 306
1906247N10327 1906 29 NA NA NOT_NAMED 1906-09-07 06:00:00 TS 14.6000 -45.6000 40 hurdat_atl main 1302 1295 O_____________ hurdat_atl AL051906 14.6000 -45.6000 TS 40 0 8 309
1906247N10327 1906 29 NA NA NOT_NAMED 1906-09-07 09:00:00 TS 14.8725 -45.9225 main 1310 1304 P_____________ AL051906 14.8725 -45.9225 TS 40 0 8 311
1906247N10327 1906 29 NA NA NOT_NAMED 1906-09-07 12:00:00 TS 15.1000 -46.2000 40 hurdat_atl main 1311 1305 O_____________ hurdat_atl AL051906 15.1000 -46.2000 TS 40 0 6 307
1906247N10327 1906 29 NA NA NOT_NAMED 1906-09-07 15:00:00 TS 15.2224 -46.4076 main 1309 1303 P_____________ AL051906 15.2224 -46.4076 TS 40 0 4 297
1906247N10327 1906 29 NA NA NOT_NAMED 1906-09-07 18:00:00 TS 15.3000 -46.6000 40 hurdat_atl main 1307 1302 O_____________ hurdat_atl AL051906 15.3000 -46.6000 TS 40 0 5 293
1906247N10327 1906 29 NA NA NOT_NAMED 1906-09-07 21:00:00 TS 15.4000 -46.8500 main 1306 1296 P_____________ AL051906 15.4000 -46.8500 TS 40 0 5 293
1906247N10327 1906 29 NA NA NOT_NAMED 1906-09-08 00:00:00 TS 15.5000 -47.1000 40 hurdat_atl main 1300 1295 O_____________ hurdat_atl AL051906 15.5000 -47.1000 TS 40 0 5 294
1906247N10327 1906 29 NA NA NOT_NAMED 1906-09-08 03:00:00 TS 15.5924 -47.3001 main 1300 1295 P_____________ AL051906 15.5924 -47.3001 TS 40 0 4 297
1906247N10327 1906 29 NA NA NOT_NAMED 1906-09-08 06:00:00 TS 15.7000 -47.5000 40 hurdat_atl main 1300 1295 O_____________ hurdat_atl AL051906 15.7000 -47.5000 TS 40 0 5 299
1906247N10327 1906 29 NA NA NOT_NAMED 1906-09-08 09:00:00 TS 15.8350 -47.7500 main 1301 1296 P_____________ AL051906 15.8350 -47.7500 TS 40 0 6 302
1906247N10327 1906 29 NA NA NOT_NAMED 1906-09-08 12:00:00 TS 16.0000 -48.0000 40 hurdat_atl main 1307 1303 O_____________ hurdat_atl AL051906 16.0000 -48.0000 TS 40 0 6 308
1906247N10327 1906 29 NA NA NOT_NAMED 1906-09-08 15:00:00 TS 16.1850 -48.2076 main 1319 1315 P_____________ AL051906 16.1850 -48.2076 TS 40 0 6 316
1906247N10327 1906 29 NA NA NOT_NAMED 1906-09-08 18:00:00 TS 16.4000 -48.4000 40 hurdat_atl main 1332 1332 O_____________ hurdat_atl AL051906 16.4000 -48.4000 TS 40 0 6 320
1906247N10327 1906 29 NA NA NOT_NAMED 1906-09-08 21:00:00 TS 16.6350 -48.6075 main 1344 1344 P_____________ AL051906 16.6350 -48.6075 TS 42 0 6 322
1906247N10327 1906 29 NA NA NOT_NAMED 1906-09-09 00:00:00 TS 16.9000 -48.8000 45 hurdat_atl main 1365 1365 O_____________ hurdat_atl AL051906 16.9000 -48.8000 TS 45 0 7 329
1906247N10327 1906 29 NA NA NOT_NAMED 1906-09-09 03:00:00 TS 17.2000 -48.9650 main 1386 1386 P_____________ AL051906 17.2000 -48.9650 TS 45 0 7 335
1906247N10327 1906 29 NA NA NOT_NAMED 1906-09-09 06:00:00 TS 17.5000 -49.1000 45 hurdat_atl main 1412 1412 O_____________ hurdat_atl AL051906 17.5000 -49.1000 TS 45 0 6 338
1906247N10327 1906 29 NA NA NOT_NAMED 1906-09-09 09:00:00 TS 17.7650 -49.2001 main 1439 1439 P_____________ AL051906 17.7650 -49.2001 TS 45 0 5 339
1906247N10327 1906 29 NA NA NOT_NAMED 1906-09-09 12:00:00 TS 18.0000 -49.3000 45 hurdat_atl main 1455 1455 O_____________ hurdat_atl AL051906 18.0000 -49.3000 TS 45 0 5 333
1906247N10327 1906 29 NA NA NOT_NAMED 1906-09-09 15:00:00 TS 18.2075 -49.4425 main 1472 1468 P_____________ AL051906 18.2075 -49.4425 TS 45 0 5 325
1906247N10327 1906 29 NA NA NOT_NAMED 1906-09-09 18:00:00 TS 18.4000 -49.6000 45 hurdat_atl main 1486 1486 O_____________ hurdat_atl AL051906 18.4000 -49.6000 TS 45 0 5 323
1906247N10327 1906 29 NA NA NOT_NAMED 1906-09-09 21:00:00 TS 18.5925 -49.7426 main 1502 1491 P_____________ AL051906 18.5925 -49.7426 TS 47 0 5 325
1906247N10327 1906 29 NA NA NOT_NAMED 1906-09-10 00:00:00 TS 18.8000 -49.9000 50 hurdat_atl main 1498 1494 O_____________ hurdat_atl AL051906 18.8000 -49.9000 TS 50 0 6 324
1906247N10327 1906 29 NA NA NOT_NAMED 1906-09-10 03:00:00 TS 19.0500 -50.0925 main 1501 1491 P_____________ AL051906 19.0500 -50.0925 TS 50 0 6 323
1906247N10327 1906 29 NA NA NOT_NAMED 1906-09-10 06:00:00 TS 19.3000 -50.3000 50 hurdat_atl main 1498 1496 O_____________ hurdat_atl AL051906 19.3000 -50.3000 TS 50 0 6 321
1906247N10327 1906 29 NA NA NOT_NAMED 1906-09-10 09:00:00 TS 19.4999 -50.4852 main 1496 1494 P_____________ AL051906 19.4999 -50.4852 TS 50 0 6 317
1906247N10327 1906 29 NA NA NOT_NAMED 1906-09-10 12:00:00 TS 19.7000 -50.7000 50 hurdat_atl main 1494 1486 O_____________ hurdat_atl AL051906 19.7000 -50.7000 TS 50 0 6 315
1906247N10327 1906 29 NA NA NOT_NAMED 1906-09-10 15:00:00 TS 19.9499 -50.9700 main 1486 1485 P_____________ AL051906 19.9499 -50.9700 TS 50 0 8 312
1906247N10327 1906 29 NA NA NOT_NAMED 1906-09-10 18:00:00 TS 20.2000 -51.3000 50 hurdat_atl main 1486 1472 O_____________ hurdat_atl AL051906 20.2000 -51.3000 TS 50 0 8 305
1906247N10327 1906 29 NA NA NOT_NAMED 1906-09-10 21:00:00 TS 20.4224 -51.6775 main 1472 1435 P_____________ AL051906 20.4224 -51.6775 TS 52 0 9 298
1906247N10327 1906 29 NA NA NOT_NAMED 1906-09-11 00:00:00 TS 20.6000 -52.1000 55 hurdat_atl main 1435 1396 O_____________ hurdat_atl AL051906 20.6000 -52.1000 TS 55 0 9 290
1906247N10327 1906 29 NA NA NOT_NAMED 1906-09-11 03:00:00 TS 20.7149 -52.5352 main 1396 1346 P_____________ AL051906 20.7149 -52.5352 TS 55 0 9 283
1906247N10327 1906 29 NA NA NOT_NAMED 1906-09-11 06:00:00 TS 20.8000 -53.0000 55 hurdat_atl main 1346 1307 O_____________ hurdat_atl AL051906 20.8000 -53.0000 TS 55 0 9 281
1906247N10327 1906 29 NA NA NOT_NAMED 1906-09-11 09:00:00 TS 20.8847 -53.4703 main 1297 1248 P_____________ AL051906 20.8847 -53.4703 TS 55 0 10 282
1906247N10327 1906 29 NA NA NOT_NAMED 1906-09-11 12:00:00 TS 21.0000 -54.0000 55 hurdat_atl main 1248 1192 O_____________ hurdat_atl AL051906 21.0000 -54.0000 TS 55 0 11 285
1906247N10327 1906 29 NA NA NOT_NAMED 1906-09-11 15:00:00 TS 21.1851 -54.6349 main 1192 1127 P_____________ AL051906 21.1851 -54.6349 TS 55 0 13 288
1906247N10327 1906 29 NA NA NOT_NAMED 1906-09-11 18:00:00 TS 21.4000 -55.3000 55 hurdat_atl main 1127 1074 O_____________ hurdat_atl AL051906 21.4000 -55.3000 TS 55 0 13 289
1906247N10327 1906 29 NA NA NOT_NAMED 1906-09-11 21:00:00 TS 21.5997 -55.9077 main 1074 1023 P_____________ AL051906 21.5997 -55.9077 TS 57 0 12 290
1906247N10327 1906 29 NA NA NOT_NAMED 1906-09-12 00:00:00 TS 21.8000 -56.5000 60 hurdat_atl main 1023 973 O_____________ hurdat_atl AL051906 21.8000 -56.5000 TS 60 0 12 290
1906247N10327 1906 29 NA NA NOT_NAMED 1906-09-12 03:00:00 TS 21.9922 -57.0928 main 973 926 P_____________ AL051906 21.9922 -57.0928 TS 60 0 12 290
1906247N10327 1906 29 NA NA NOT_NAMED 1906-09-12 06:00:00 TS 22.2000 -57.7000 60 hurdat_atl main 926 882 O_____________ hurdat_atl AL051906 22.2000 -57.7000 TS 60 0 13 292
1906247N10327 1906 29 NA NA NOT_NAMED 1906-09-12 09:00:00 TS 22.4574 -58.3498 main 887 838 P_____________ AL051906 22.4574 -58.3498 TS 62 0 13 293
1906247N10327 1906 29 NA NA NOT_NAMED 1906-09-12 12:00:00 TS 22.7000 -59.0000 65 hurdat_atl main 838 801 O_____________ hurdat_atl AL051906 22.7000 -59.0000 HU 65 1 12 289
1906247N10327 1906 29 NA NA NOT_NAMED 1906-09-12 15:00:00 TS 22.8723 -59.6227 main 801 761 P_____________ AL051906 22.8723 -59.6227 HU 65 1 11 285
1906247N10327 1906 29 NA NA NOT_NAMED 1906-09-12 18:00:00 TS 23.0000 -60.2000 65 hurdat_atl main 761 731 O_____________ hurdat_atl AL051906 23.0000 -60.2000 HU 65 1 10 282
1906247N10327 1906 29 NA NA NOT_NAMED 1906-09-12 21:00:00 TS 23.0921 -60.7079 main 731 705 P_____________ AL051906 23.0921 -60.7079 HU 67 1 9 282
1906247N10327 1906 29 NA NA NOT_NAMED 1906-09-13 00:00:00 TS 23.2000 -61.2000 70 hurdat_atl main 705 681 O_____________ hurdat_atl AL051906 23.2000 -61.2000 HU 70 1 10 286
1906247N10327 1906 29 NA NA NOT_NAMED 1906-09-13 03:00:00 TS 23.3625 -61.7502 main 684 670 P_____________ AL051906 23.3625 -61.7502 HU 70 1 11 292
1906247N10327 1906 29 NA NA NOT_NAMED 1906-09-13 06:00:00 TS 23.6000 -62.3000 70 hurdat_atl main 674 669 O_____________ hurdat_atl AL051906 23.6000 -62.3000 HU 70 1 11 299
1906247N10327 1906 29 NA NA NOT_NAMED 1906-09-13 09:00:00 TS 23.9049 -62.8227 main 680 675 P_____________ AL051906 23.9049 -62.8227 HU 72 1 12 307
1906247N10327 1906 29 NA NA NOT_NAMED 1906-09-13 12:00:00 TS 24.3000 -63.3000 75 hurdat_atl main 701 697 O_____________ hurdat_atl AL051906 24.3000 -63.3000 HU 75 1 12 316
1906247N10327 1906 29 NA NA NOT_NAMED 1906-09-13 15:00:00 TS 24.7549 -63.7302 main 742 739 P_____________ AL051906 24.7549 -63.7302 HU 75 1 12 324
1906247N10327 1906 29 NA NA NOT_NAMED 1906-09-13 18:00:00 TS 25.3000 -64.1000 75 hurdat_atl main 786 786 O_____________ hurdat_atl AL051906 25.3000 -64.1000 HU 75 1 13 333
1906247N10327 1906 29 NA NA NOT_NAMED 1906-09-13 21:00:00 TS 25.9272 -64.4006 main 847 847 P_____________ AL051906 25.9272 -64.4006 HU 77 1 14 337
1906247N10327 1906 29 NA NA NOT_NAMED 1906-09-14 00:00:00 TS 26.6000 -64.7000 80 hurdat_atl main 921 921 O_____________ hurdat_atl AL051906 26.6000 -64.7000 HU 80 1 15 335
1906247N10327 1906 29 NA NA NOT_NAMED 1906-09-14 03:00:00 TS 27.2650 -65.0850 main 991 991 P_____________ AL051906 27.2650 -65.0850 HU 80 1 15 331
1906247N10327 1906 29 NA NA NOT_NAMED 1906-09-14 06:00:00 TS 27.9000 -65.5000 80 hurdat_atl main 1034 1034 O_____________ hurdat_atl AL051906 27.9000 -65.5000 HU 80 1 15 329
1906247N10327 1906 29 NA NA NOT_NAMED 1906-09-14 09:00:00 TS 28.5101 -65.9298 main 1077 1073 P_____________ AL051906 28.5101 -65.9298 HU 80 1 13 327
1906247N10327 1906 29 NA NA NOT_NAMED 1906-09-14 12:00:00 TS 29.0000 -66.3000 80 hurdat_atl main 1101 1101 O_____________ hurdat_atl AL051906 29.0000 -66.3000 HU 80 1 10 326
1906247N10327 1906 29 NA NA NOT_NAMED 1906-09-14 15:00:00 TS 29.3023 -66.5307 main 1110 1080 P_____________ AL051906 29.3023 -66.5307 HU 80 1 6 325
1906247N10327 1906 29 NA NA NOT_NAMED 1906-09-14 18:00:00 TS 29.5000 -66.7000 80 hurdat_atl main 1080 1051 O_____________ hurdat_atl AL051906 29.5000 -66.7000 HU 80 1 5 322
1906247N10327 1906 29 NA NA NOT_NAMED 1906-09-14 21:00:00 TS 29.7150 -66.9001 main 1051 1022 P_____________ AL051906 29.7150 -66.9001 HU 80 1 5 319
1906247N10327 1906 29 NA NA NOT_NAMED 1906-09-15 00:00:00 TS 29.9000 -67.1000 80 hurdat_atl main 1022 1000 O_____________ hurdat_atl AL051906 29.9000 -67.1000 HU 80 1 5 315
1906247N10327 1906 29 NA NA NOT_NAMED 1906-09-15 03:00:00 TS 30.0574 -67.2926 main 992 971 P_____________ AL051906 30.0574 -67.2926 HU 80 1 5 311
1906247N10327 1906 29 NA NA NOT_NAMED 1906-09-15 06:00:00 TS 30.2000 -67.5000 80 hurdat_atl main 971 949 O_____________ hurdat_atl AL051906 30.2000 -67.5000 HU 80 1 5 306
1906247N10327 1906 29 NA NA NOT_NAMED 1906-09-15 09:00:00 TS 30.3425 -67.7426 main 949 913 P_____________ AL051906 30.3425 -67.7426 HU 80 1 5 305
1906247N10327 1906 29 NA NA NOT_NAMED 1906-09-15 12:00:00 TS 30.5000 -68.0000 80 hurdat_atl main 913 884 O_____________ hurdat_atl AL051906 30.5000 -68.0000 HU 80 1 6 309
1906247N10327 1906 29 NA NA NOT_NAMED 1906-09-15 15:00:00 TS 30.7000 -68.2500 main 884 847 P_____________ AL051906 30.7000 -68.2500 HU 80 1 6 313
1906247N10327 1906 29 NA NA NOT_NAMED 1906-09-15 18:00:00 TS 30.9000 -68.5000 80 hurdat_atl main 847 826 O_____________ hurdat_atl AL051906 30.9000 -68.5000 HU 80 1 5 311
1906247N10327 1906 29 NA NA NOT_NAMED 1906-09-15 21:00:00 TS 31.0574 -68.7352 main 818 790 P_____________ AL051906 31.0574 -68.7352 HU 80 1 5 305
1906247N10327 1906 29 NA NA NOT_NAMED 1906-09-16 00:00:00 TS 31.2000 -69.0000 80 hurdat_atl main 790 761 O_____________ hurdat_atl AL051906 31.2000 -69.0000 HU 80 1 6 301
1906247N10327 1906 29 NA NA NOT_NAMED 1906-09-16 03:00:00 TS 31.3573 -69.3125 main 754 718 P_____________ AL051906 31.3573 -69.3125 HU 80 1 7 297
1906247N10327 1906 29 NA NA NOT_NAMED 1906-09-16 06:00:00 TS 31.5000 -69.7000 80 hurdat_atl main 718 682 O_____________ hurdat_atl AL051906 31.5000 -69.7000 HU 80 1 8 289
1906247N10327 1906 29 NA NA NOT_NAMED 1906-09-16 09:00:00 TS 31.5997 -70.1554 main 675 630 P_____________ AL051906 31.5997 -70.1554 HU 80 1 9 283
1906247N10327 1906 29 NA NA NOT_NAMED 1906-09-16 12:00:00 TS 31.7000 -70.7000 80 hurdat_atl main 630 571 O_____________ hurdat_atl AL051906 31.7000 -70.7000 HU 80 1 10 285
1906247N10327 1906 29 NA NA NOT_NAMED 1906-09-16 15:00:00 TS 31.8649 -71.3195 main 571 512 P_____________ AL051906 31.8649 -71.3195 HU 80 1 11 285
1906247N10327 1906 29 NA NA NOT_NAMED 1906-09-16 18:00:00 TS 32.0000 -72.0000 80 hurdat_atl main 512 470 O_____________ hurdat_atl AL051906 32.0000 -72.0000 HU 80 1 12 277
1906247N10327 1906 29 NA NA NOT_NAMED 1906-09-16 21:00:00 TS 32.0143 -72.6707 main 463 416 P_____________ AL051906 32.0143 -72.6707 HU 80 1 12 270
1906247N10327 1906 29 NA NA NOT_NAMED 1906-09-17 00:00:00 TS 32.0000 -73.4000 80 hurdat_atl main 416 368 O_____________ hurdat_atl AL051906 32.0000 -73.4000 HU 80 1 13 271
1906247N10327 1906 29 NA NA NOT_NAMED 1906-09-17 03:00:00 TS 32.0350 -74.2351 main 368 317 P_____________ AL051906 32.0350 -74.2351 HU 80 1 14 274
1906247N10327 1906 29 NA NA NOT_NAMED 1906-09-17 06:00:00 TS 32.1000 -75.1000 80 hurdat_atl main 317 272 O_____________ hurdat_atl AL051906 32.1000 -75.1000 HU 80 1 14 275
1906247N10327 1906 29 NA NA NOT_NAMED 1906-09-17 09:00:00 TS 32.1620 -75.9157 main 272 215 P_____________ AL051906 32.1620 -75.9157 HU 80 1 14 278
1906247N10327 1906 29 NA NA NOT_NAMED 1906-09-17 12:00:00 TS 32.3000 -76.7000 80 hurdat_atl main 215 155 O_____________ hurdat_atl AL051906 32.3000 -76.7000 HU 80 1 14 287
1906247N10327 1906 29 NA NA NOT_NAMED 1906-09-17 15:00:00 TS 32.5711 -77.4569 main 152 98 P_____________ AL051906 32.5711 -77.4569 HU 80 1 14 295
1906247N10327 1906 29 NA NA NOT_NAMED 1906-09-17 18:00:00 TS 32.9000 -78.2000 80 977 hurdat_atl main 98 27 O_____________ hurdat_atl AL051906 32.9000 -78.2000 HU 80 977 1 14 297
1906247N10327 1906 29 NA NA NOT_NAMED 1906-09-17 21:00:00 TS 33.1997 -78.9301 main 27 0 P_____________ AL051906 33.1997 -78.9301 HU 80 977 1 14 296
1906247N10327 1906 29 NA NA NOT_NAMED 1906-09-17 22:00:00 TS 33.3000 -79.2000 80 977 hurdat_atl main 0 0 O_____________ hurdat_atl AL051906 33.3000 -79.2000 L HU 80 977 1 16 292
1906247N10327 1906 29 NA NA NOT_NAMED 1906-09-18 00:00:00 TS 33.5000 -79.8000 60 hurdat_atl main 0 0 O_____________ hurdat_atl AL051906 33.5000 -79.8000 TS 60 0 16 295
1906247N10327 1906 29 NA NA NOT_NAMED 1906-09-18 03:00:00 TS 33.8829 -80.6745 main 0 0 P_____________ AL051906 33.8829 -80.6745 TS 50 0 16 300
1906247N10327 1906 29 NA NA NOT_NAMED 1906-09-18 06:00:00 TS 34.3000 -81.5000 40 hurdat_atl main 0 0 O_____________ hurdat_atl AL051906 34.3000 -81.5000 TS 40 0 15 301
1906247N10327 1906 29 NA NA NOT_NAMED 1906-09-18 09:00:00 TS 34.6717 -82.2656 main 0 0 P_____________ AL051906 34.6717 -82.2656 TS 35 0 14 300
1906247N10327 1906 29 NA NA NOT_NAMED 1906-09-18 12:00:00 TS 35.0000 -83.0000 30 hurdat_atl main 0 0 O_____________ hurdat_atl AL051906 35.0000 -83.0000 TD 30 -1 13 296
1906247N10327 1906 29 NA NA NOT_NAMED 1906-09-18 15:00:00 TS 35.2686 -83.7442 main 0 0 P_____________ AL051906 35.2686 -83.7442 TD 30 -1 13 292
1906247N10327 1906 29 NA NA NOT_NAMED 1906-09-18 18:00:00 TS 35.5000 -84.5000 30 hurdat_atl main 0 O_____________ hurdat_atl AL051906 35.5000 -84.5000 TD 30 -1 13 291

About IBTrACS Database

This database is a web-friendly format of International Best Track Archive for Climate Stewardship (IBTrACS), a global best track data archive curated by NOAA dating back to 1842.

Updated: 2021-10-27